Time;durP1;ratioP1;P1;durP2;ratioP2;P2;SDS_P1;SDS_P2;PMS_P1;PMS_P2;Temp;Humidity;BMP_temperature;BMP_pressure;BME280_temperature;BME280_humidity;BME280_pressure;Samples;Min_cycle;Max_cycle;Signal;HPM_P1;HPM_P2
2023/04/01 03:00:29;;;;;;;6.23;5.93;;;8.40;99.90;;;;;;5863041;23;20447;-78
2023/04/01 03:02:56;;;;;;;5.20;5.10;;;8.40;99.90;;;;;;4938228;29;20190;-78
2023/04/01 03:05:22;;;;;;;5.87;5.67;;;8.40;99.90;;;;;;4920953;29;20270;-79
2023/04/01 03:07:48;;;;;;;6.27;5.93;;;8.40;99.90;;;;;;4937808;29;20210;-79
2023/04/01 03:10:14;;;;;;;5.60;5.40;;;8.40;99.90;;;;;;4937217;29;20180;-79
2023/04/01 03:12:40;;;;;;;4.83;4.67;;;8.50;99.90;;;;;;4902089;29;20183;-79
2023/04/01 03:15:06;;;;;;;9.97;9.27;;;8.50;99.90;;;;;;4902434;29;20242;-79
2023/04/01 03:17:32;;;;;;;16.57;15.73;;;8.50;99.90;;;;;;4901844;29;20223;-79
2023/04/01 03:19:58;;;;;;;22.67;21.67;;;8.50;99.90;;;;;;4901822;29;20183;-79
2023/04/01 03:22:24;;;;;;;24.27;23.17;;;8.40;99.90;;;;;;4918723;29;20206;-79
2023/04/01 03:24:49;;;;;;;12.90;12.27;;;8.30;99.90;;;;;;4901454;29;20187;-79
2023/04/01 03:27:15;;;;;;;4.33;4.13;;;8.30;99.90;;;;;;4902087;29;20187;-78
2023/04/01 03:29:41;;;;;;;12.50;12.00;;;8.30;99.90;;;;;;4905312;29;20277;-79
2023/04/01 03:32:07;;;;;;;19.77;18.83;;;8.40;99.90;;;;;;4918839;29;20200;-79
2023/04/01 03:34:33;;;;;;;9.27;8.67;;;8.50;99.90;;;;;;4917818;29;20222;-79
2023/04/01 03:36:59;;;;;;;5.43;5.20;;;8.50;99.90;;;;;;4901027;29;20183;-79
2023/04/01 03:39:25;;;;;;;5.03;4.83;;;8.50;99.90;;;;;;4900523;29;20185;-79
2023/04/01 03:41:50;;;;;;;5.57;5.40;;;8.50;99.90;;;;;;4900468;29;20239;-78
2023/04/01 03:44:16;;;;;;;12.93;12.13;;;8.50;99.90;;;;;;4903237;29;20184;-80
2023/04/01 03:46:42;;;;;;;9.50;8.90;;;8.40;99.90;;;;;;4903478;29;20191;-80
2023/04/01 03:49:12;;;;;;;5.27;5.03;;;8.30;99.90;;;;;;4902572;29;20187;-79
2023/04/01 03:51:40;;;;;;;5.90;5.60;;;8.30;99.90;;;;;;4901826;29;20202;-79
2023/04/01 03:54:05;;;;;;;5.23;4.93;;;8.30;99.90;;;;;;4918483;29;20258;-79
2023/04/01 03:56:31;;;;;;;5.10;4.80;;;8.30;99.90;;;;;;4918371;29;20183;-79
2023/04/01 03:58:57;;;;;;;4.83;4.63;;;8.40;99.90;;;;;;4917715;29;20207;-80
2023/04/01 04:01:23;;;;;;;5.70;5.50;;;8.40;99.90;;;;;;4903413;29;20229;-79
2023/04/01 04:03:49;;;;;;;7.50;7.07;;;8.50;99.90;;;;;;4917821;29;20258;-79
2023/04/01 04:06:17;;;;;;;12.47;11.80;;;8.50;99.90;;;;;;4901375;29;20187;-79
2023/04/01 04:08:43;;;;;;;19.80;18.93;;;8.50;99.90;;;;;;4902412;29;20183;-78
2023/04/01 04:11:09;;;;;;;18.70;17.70;;;8.50;99.90;;;;;;4902222;29;20215;-79
2023/04/01 04:13:35;;;;;;;23.87;22.73;;;8.40;99.90;;;;;;4918059;29;20217;-79
2023/04/01 04:16:02;;;;;;;22.87;21.80;;;8.40;99.90;;;;;;4900402;29;20210;-79
2023/04/01 04:18:28;;;;;;;25.87;24.67;;;8.30;99.90;;;;;;4903745;29;20183;-78
2023/04/01 04:20:54;;;;;;;24.73;23.23;;;8.30;99.90;;;;;;4906812;29;20206;-78
2023/04/01 04:23:21;;;;;;;20.50;19.60;;;8.20;99.90;;;;;;4910466;29;20183;-78
2023/04/01 04:25:54;;;;;;;19.87;19.00;;;8.20;99.90;;;;;;4921309;29;20217;-78
2023/04/01 04:28:20;;;;;;;17.53;16.77;;;8.20;99.90;;;;;;4920365;29;20200;-79
2023/04/01 04:30:46;;;;;;;18.13;17.23;;;8.20;99.90;;;;;;4921851;29;20199;-79
2023/04/01 04:33:11;;;;;;;8.07;7.77;;;8.20;99.90;;;;;;4920131;29;20784;-79
2023/04/01 04:35:37;;;;;;;13.97;13.27;;;8.10;99.90;;;;;;4904850;29;20252;-79
2023/04/01 04:38:03;;;;;;;10.40;10.00;;;8.10;99.90;;;;;;4900979;29;20191;-79
2023/04/01 04:40:29;;;;;;;8.87;8.47;;;8.20;99.90;;;;;;4916864;29;20551;-79
2023/04/01 04:42:54;;;;;;;6.93;6.73;;;8.20;99.90;;;;;;4900267;29;20273;-80
2023/04/01 04:45:20;;;;;;;7.37;7.10;;;8.20;99.90;;;;;;4917461;29;20186;-81
2023/04/01 04:47:46;;;;;;;8.00;7.70;;;8.20;99.90;;;;;;4900932;29;20191;-80
2023/04/01 04:50:12;;;;;;;4.43;4.17;;;8.10;99.90;;;;;;4921118;29;20175;-80
2023/04/01 04:52:38;;;;;;;6.33;6.13;;;8.10;99.90;;;;;;4903588;29;20183;-80
2023/04/01 04:55:05;;;;;;;16.13;15.43;;;8.10;99.90;;;;;;4903834;29;20216;-80
2023/04/01 04:57:30;;;;;;;21.13;20.10;;;8.10;99.90;;;;;;4920612;29;20183;-79
2023/04/01 04:59:56;;;;;;;26.10;24.63;;;8.10;99.90;;;;;;4920197;29;20654;-79
2023/04/01 05:02:22;;;;;;;21.73;20.77;;;8.20;99.90;;;;;;4903286;29;20211;-79
2023/04/01 05:04:48;;;;;;;10.33;9.90;;;8.20;99.90;;;;;;4903363;29;20196;-79
2023/04/01 05:07:13;;;;;;;5.90;5.60;;;8.30;99.90;;;;;;4920682;29;20663;-79
2023/04/01 05:09:40;;;;;;;7.87;7.27;;;8.30;99.90;;;;;;4903158;29;20199;-79
2023/04/01 05:12:06;;;;;;;8.40;8.10;;;8.30;99.90;;;;;;4921967;29;20215;-78
2023/04/01 05:14:32;;;;;;;8.10;7.80;;;8.30;99.90;;;;;;4909483;29;20214;-80
2023/04/01 05:16:57;;;;;;;8.27;7.97;;;8.40;99.90;;;;;;4907248;29;20191;-78
2023/04/01 05:19:23;;;;;;;6.93;6.73;;;8.40;99.90;;;;;;4925904;29;20188;-78
2023/04/01 05:21:49;;;;;;;5.40;5.10;;;8.40;99.90;;;;;;4910571;29;20259;-78
2023/04/01 05:24:15;;;;;;;6.90;6.60;;;8.50;99.90;;;;;;4925821;29;20218;-78
2023/04/01 05:26:41;;;;;;;6.73;6.43;;;8.50;99.90;;;;;;4905956;29;20187;-79
2023/04/01 05:29:07;;;;;;;6.57;6.27;;;8.50;99.90;;;;;;4920784;29;20186;-79
2023/04/01 05:31:33;;;;;;;7.77;7.47;;;8.60;99.90;;;;;;4904349;29;20703;-79
2023/04/01 05:33:58;;;;;;;5.30;5.10;;;8.60;99.90;;;;;;4905424;29;20218;-79
2023/04/01 05:36:24;;;;;;;8.67;8.00;;;8.70;99.90;;;;;;4908911;29;20185;-77
2023/04/01 05:38:50;;;;;;;4.03;3.93;;;8.70;99.90;;;;;;4921769;29;20223;-79
2023/04/01 05:41:16;;;;;;;3.53;3.33;;;8.70;99.90;;;;;;4903877;29;20204;-79
2023/04/01 05:43:42;;;;;;;3.40;3.30;;;8.60;99.90;;;;;;4920929;29;20197;-79
2023/04/01 05:46:08;;;;;;;3.60;3.50;;;8.70;99.90;;;;;;4903263;29;20198;-79
2023/04/01 05:48:34;;;;;;;3.90;3.70;;;8.60;99.90;;;;;;4919822;29;20191;-79
2023/04/01 05:51:01;;;;;;;4.07;3.87;;;8.60;99.90;;;;;;4903272;29;20247;-79
2023/04/01 05:53:27;;;;;;;4.10;3.90;;;8.60;99.90;;;;;;4903135;29;20266;-79
2023/04/01 05:55:53;;;;;;;5.93;5.53;;;8.60;99.90;;;;;;4919733;29;20195;-78
2023/04/01 05:58:18;;;;;;;5.57;5.23;;;8.70;99.90;;;;;;4902085;29;20180;-78
2023/04/01 06:00:44;;;;;;;4.87;3.47;;;8.80;99.90;;;;;;4902388;29;20238;-79
2023/04/01 06:03:10;;;;;;;3.23;3.13;;;8.80;99.90;;;;;;4919333;29;20183;-80
2023/04/01 06:05:45;;;;;;;3.93;3.37;;;8.80;99.90;;;;;;4902046;29;20191;-79
2023/04/01 06:08:17;;;;;;;4.83;3.93;;;8.80;99.90;;;;;;4902965;29;20222;-80
2023/04/01 06:11:09;;;;;;;6.00;5.50;;;8.90;99.90;;;;;;4901808;29;20213;-79
2023/04/01 06:13:54;;;;;;;7.27;7.00;;;9.00;99.90;;;;;;4916318;29;20230;-79
2023/04/01 06:16:31;;;;;;;20.03;19.10;;;9.20;99.90;;;;;;4902719;29;20195;-78
2023/04/01 06:19:24;;;;;;;14.47;13.73;;;9.30;99.90;;;;;;4919072;29;20210;-78
2023/04/01 06:22:01;;;;;;;13.37;12.60;;;9.40;99.90;;;;;;4922624;29;20254;-78
2023/04/01 06:24:48;;;;;;;8.50;8.20;;;9.40;99.90;;;;;;4923184;29;20193;-78
2023/04/01 06:27:49;;;;;;;5.10;4.80;;;9.50;99.90;;;;;;4921443;29;20206;-78
2023/04/01 06:30:38;;;;;;;4.97;4.77;;;9.50;99.90;;;;;;4919671;29;20216;-79
2023/04/01 06:33:14;;;;;;;4.30;3.90;;;9.60;99.90;;;;;;4904206;29;20213;-79
2023/04/01 06:35:48;;;;;;;3.90;3.70;;;9.70;99.90;;;;;;4904870;29;20182;-80
2023/04/01 06:38:35;;;;;;;3.97;3.67;;;9.80;99.90;;;;;;4903338;29;20202;-79
2023/04/01 06:41:23;;;;;;;5.93;5.57;;;9.90;99.90;;;;;;4919443;29;20229;-79
2023/04/01 06:44:19;;;;;;;13.60;13.00;;;10.00;99.90;;;;;;4902726;29;20368;-79
2023/04/01 06:47:22;;;;;;;10.53;10.13;;;10.10;99.90;;;;;;4903772;29;20187;-79
2023/04/01 06:49:50;;;;;;;17.90;17.10;;;10.20;99.90;;;;;;4901927;29;20183;-79
2023/04/01 06:52:34;;;;;;;16.40;15.70;;;10.50;99.90;;;;;;4914810;29;20207;-78
2023/04/01 06:55:28;;;;;;;12.93;12.30;;;10.60;99.90;;;;;;4914658;29;20231;-78
2023/04/01 06:58:00;;;;;;;4.20;4.03;;;10.60;99.90;;;;;;4922328;29;20220;-78
2023/04/01 07:00:32;;;;;;;4.00;3.80;;;10.50;99.90;;;;;;4905111;29;20183;-78
2023/04/01 07:03:04;;;;;;;4.07;3.97;;;10.50;99.90;;;;;;4922064;29;20187;-79
2023/04/01 07:05:32;;;;;;;3.40;3.30;;;10.40;99.90;;;;;;4902497;29;20568;-79
2023/04/01 07:08:02;;;;;;;4.07;3.97;;;10.40;99.90;;;;;;4901746;29;20696;-79
2023/04/01 07:11:16;;;;;;;4.00;3.90;;;10.20;99.90;;;;;;4900560;29;20183;-79
2023/04/01 07:13:50;;;;;;;3.60;3.50;;;10.20;99.90;;;;;;4889398;29;20219;-79
2023/04/01 07:16:43;;;;;;;5.20;4.90;;;10.20;99.90;;;;;;4901855;29;20670;-80
2023/04/01 07:19:35;;;;;;;6.27;5.87;;;10.20;99.90;;;;;;4901934;29;20183;-79
2023/04/01 07:22:14;;;;;;;22.97;21.73;;;10.10;99.90;;;;;;4901273;29;20210;-80
2023/04/01 07:24:44;;;;;;;16.03;15.33;;;10.10;99.90;;;;;;4903532;29;20179;-78
2023/04/01 07:27:12;;;;;;;11.77;11.27;;;10.10;99.90;;;;;;4904715;29;20565;-78
2023/04/01 07:29:38;;;;;;;13.03;12.07;;;10.20;99.90;;;;;;4901610;29;20345;-81
2023/04/01 07:32:35;;;;;;;11.37;10.90;;;10.20;99.90;;;;;;4904682;29;20298;-78
2023/04/01 07:35:27;;;;;;;6.13;5.83;;;10.30;99.90;;;;;;4921441;29;20281;-79
2023/04/01 07:38:04;;;;;;;4.87;4.17;;;10.40;99.90;;;;;;4918164;29;20187;-80
2023/04/01 07:40:35;;;;;;;4.83;4.53;;;10.40;99.90;;;;;;4901219;29;20432;-80
2023/04/01 07:43:19;;;;;;;4.17;4.07;;;10.40;99.90;;;;;;4918202;29;20547;-78
2023/04/01 07:46:21;;;;;;;4.47;4.27;;;10.50;99.90;;;;;;4918271;29;20183;-80
2023/04/01 07:49:15;;;;;;;4.50;4.30;;;10.70;99.90;;;;;;4917740;29;20568;-79
2023/04/01 07:52:01;;;;;;;4.87;4.67;;;10.80;99.90;;;;;;4918358;29;20262;-78
2023/04/01 07:54:43;;;;;;;5.53;5.23;;;10.90;99.90;;;;;;4917615;29;20221;-77
2023/04/01 07:57:34;;;;;;;6.13;5.63;;;10.90;99.90;;;;;;4918618;29;20568;-78
2023/04/01 08:00:22;;;;;;;6.30;6.00;;;10.90;99.90;;;;;;4901213;29;20187;-80
2023/04/01 08:03:06;;;;;;;5.83;5.63;;;10.80;99.90;;;;;;4904891;29;20183;-79
2023/04/01 08:05:47;;;;;;;6.80;6.40;;;10.80;99.90;;;;;;4901185;29;20278;-79
2023/04/01 08:08:28;;;;;;;6.00;5.73;;;10.90;99.90;;;;;;4900819;29;20191;-80
2023/04/01 08:11:02;;;;;;;7.97;7.37;;;10.90;99.90;;;;;;4900351;29;20221;-80
2023/04/01 08:13:40;;;;;;;8.30;7.60;;;10.90;99.90;;;;;;4917668;29;20218;-79
2023/04/01 08:16:17;;;;;;;8.73;8.03;;;10.80;99.90;;;;;;4924583;29;20558;-78
2023/04/01 08:19:03;;;;;;;6.60;6.13;;;10.80;99.90;;;;;;4902739;29;20183;-79
2023/04/01 08:21:38;;;;;;;6.17;5.70;;;10.80;99.90;;;;;;4904887;29;20203;-78
2023/04/01 08:24:31;;;;;;;5.70;5.40;;;10.70;99.90;;;;;;4909058;29;20662;-78
2023/04/01 08:27:01;;;;;;;5.43;5.23;;;10.80;99.90;;;;;;4909041;29;20191;-79
2023/04/01 08:29:41;;;;;;;5.73;5.33;;;10.80;99.90;;;;;;4910707;29;20202;-79
2023/04/01 08:32:14;;;;;;;4.83;4.63;;;10.80;99.90;;;;;;4921970;29;20428;-79
2023/04/01 08:34:43;;;;;;;7.40;6.90;;;10.70;99.90;;;;;;4901580;29;20218;-79
2023/04/01 08:37:20;;;;;;;9.57;8.77;;;10.80;99.90;;;;;;4901037;29;20186;-80
2023/04/01 08:40:12;;;;;;;6.57;6.10;;;10.80;99.90;;;;;;4917492;29;20538;-79
2023/04/01 08:42:59;;;;;;;5.90;5.60;;;10.80;99.90;;;;;;4899371;29;20199;-78
2023/04/01 08:45:52;;;;;;;5.57;5.07;;;10.80;99.90;;;;;;4901252;29;20187;-79
2023/04/01 08:48:37;;;;;;;5.50;5.30;;;10.80;99.90;;;;;;4917246;29;20210;-79
2023/04/01 08:51:40;;;;;;;5.10;4.80;;;10.70;99.90;;;;;;4901084;29;20203;-79
2023/04/01 08:54:21;;;;;;;4.70;4.50;;;10.60;99.90;;;;;;4900235;29;20211;-79
2023/04/01 08:57:11;;;;;;;5.10;4.90;;;10.60;99.90;;;;;;4900909;29;20187;-78
2023/04/01 08:59:55;;;;;;;5.30;5.03;;;10.70;99.90;;;;;;4915051;29;20205;-79
2023/04/01 09:02:58;;;;;;;5.13;4.83;;;10.70;99.90;;;;;;4918544;29;20592;-79
2023/04/01 09:06:02;;;;;;;19.67;18.70;;;10.80;99.90;;;;;;4854075;29;20282;-79
2023/04/01 09:08:36;;;;;;;46.73;44.47;;;10.60;99.90;;;;;;4895425;29;20190;-79
2023/04/01 09:11:25;;;;;;;13.60;12.90;;;10.10;99.90;;;;;;4900619;29;20314;-79
2023/04/01 09:14:28;;;;;;;59.87;56.77;;;9.80;99.90;;;;;;4927276;23;20311;-83
2023/04/01 09:17:28;;;;;;;6.63;6.23;;;9.50;99.90;;;;;;4919318;29;20186;-82
2023/04/01 09:20:06;;;;;;;9.40;8.50;;;9.50;99.90;;;;;;4939211;29;20170;-81
2023/04/01 09:22:56;;;;;;;15.27;14.57;;;9.30;99.90;;;;;;4934604;29;20213;-82
2023/04/01 09:25:30;;;;;;;10.30;9.80;;;9.30;99.90;;;;;;4902866;29;20211;-82
2023/04/01 09:28:16;;;;;;;11.17;10.40;;;9.30;99.90;;;;;;4919528;29;20567;-82
2023/04/01 09:30:53;;;;;;;5.70;5.40;;;9.30;99.90;;;;;;4900411;29;20226;-82
2023/04/01 09:33:44;;;;;;;6.27;6.07;;;9.30;99.90;;;;;;4900149;29;20188;-81
2023/04/01 09:36:27;;;;;;;8.67;8.27;;;9.30;99.90;;;;;;4902818;29;20711;-81
2023/04/01 09:39:12;;;;;;;10.03;9.53;;;9.20;99.90;;;;;;4902332;29;20237;-81
2023/04/01 09:42:05;;;;;;;11.83;11.27;;;9.30;99.90;;;;;;4902642;29;20187;-81
2023/04/01 09:44:36;;;;;;;12.07;11.47;;;9.40;99.90;;;;;;4908102;29;20215;-81
2023/04/01 09:47:35;;;;;;;10.53;9.77;;;9.50;99.90;;;;;;4904956;29;20198;-82
2023/04/01 09:50:29;;;;;;;8.57;7.70;;;9.50;99.90;;;;;;4903759;29;20191;-82
2023/04/01 09:53:36;;;;;;;8.70;8.20;;;9.60;99.90;;;;;;4903865;29;20277;-82
2023/04/01 09:56:20;;;;;;;5.20;4.80;;;9.70;99.90;;;;;;4902956;29;20191;-81
2023/04/01 09:58:58;;;;;;;8.90;8.27;;;9.80;99.90;;;;;;4902947;29;20270;-81
2023/04/01 10:01:52;;;;;;;12.40;11.90;;;9.80;99.90;;;;;;4919887;29;20281;-82
2023/04/01 10:04:24;;;;;;;7.00;6.70;;;10.00;99.90;;;;;;4902681;29;20204;-81
2023/04/01 10:07:05;;;;;;;19.03;18.23;;;10.00;99.90;;;;;;4902529;29;20565;-81
2023/04/01 10:09:56;;;;;;;13.20;12.60;;;10.00;99.90;;;;;;4902232;29;20187;-81
2023/04/01 10:12:57;;;;;;;10.80;10.37;;;10.10;99.90;;;;;;4919599;29;20183;-81
2023/04/01 10:15:41;;;;;;;8.83;8.43;;;10.00;99.90;;;;;;4901592;29;20639;-81
2023/04/01 10:18:10;;;;;;;10.67;10.27;;;9.90;99.90;;;;;;4905281;29;20195;-81
2023/04/01 10:20:36;;;;;;;13.37;12.87;;;9.80;99.90;;;;;;4912292;29;20270;-82
2023/04/01 10:23:25;;;;;;;8.00;7.60;;;9.80;99.90;;;;;;4922278;29;20214;-82
2023/04/01 10:26:28;;;;;;;7.97;7.57;;;9.70;99.90;;;;;;4904371;29;20210;-81
2023/04/01 10:29:06;;;;;;;10.23;9.80;;;9.60;99.90;;;;;;4906631;29;20643;-81
2023/04/01 10:31:48;;;;;;;13.73;13.13;;;9.70;99.90;;;;;;4919477;29;20189;-81
2023/04/01 10:34:36;;;;;;;15.23;14.53;;;9.60;99.90;;;;;;4902112;29;20361;-81
2023/04/01 10:37:32;;;;;;;15.80;15.07;;;9.60;99.90;;;;;;4902583;29;20192;-81
2023/04/01 10:40:16;;;;;;;20.97;19.93;;;9.60;99.90;;;;;;4921552;29;20778;-82
2023/04/01 10:43:10;;;;;;;20.33;19.43;;;9.60;99.90;;;;;;4906148;29;20175;-81
2023/04/01 10:45:57;;;;;;;21.23;20.20;;;9.70;99.90;;;;;;4912459;29;20191;-80
2023/04/01 10:48:37;;;;;;;18.60;17.67;;;9.70;99.90;;;;;;4903030;29;20233;-81
2023/04/01 10:51:45;;;;;;;20.83;19.90;;;9.80;99.90;;;;;;4902197;29;20194;-81
2023/04/01 10:54:42;;;;;;;13.27;12.77;;;9.90;99.90;;;;;;4902814;29;20643;-81
2023/04/01 10:57:41;;;;;;;9.97;9.57;;;9.80;99.90;;;;;;4901985;29;20605;-81
2023/04/01 11:00:47;;;;;;;11.03;7.10;;;9.80;99.90;;;;;;4919216;29;20193;-81
2023/04/01 11:03:27;;;;;;;11.53;10.87;;;9.70;99.90;;;;;;4919419;29;20304;-81
2023/04/01 11:06:39;;;;;;;21.53;20.23;;;9.70;99.90;;;;;;4907386;29;20183;-81
2023/04/01 11:10:06;;;;;;;25.73;24.23;;;9.60;99.90;;;;;;4901535;29;20194;-80
2023/04/01 11:12:52;;;;;;;24.83;23.33;;;9.50;99.90;;;;;;4860103;29;20483;-80
2023/04/01 11:15:39;;;;;;;21.80;20.50;;;9.50;99.90;;;;;;4844376;29;20224;-80
2023/04/01 11:18:11;;;;;;;6.53;6.03;;;9.40;99.90;;;;;;4896031;29;20647;-80
2023/04/01 11:21:01;;;;;;;16.07;15.40;;;9.30;99.90;;;;;;4918335;29;20195;-79
2023/04/01 11:23:55;;;;;;;17.60;16.87;;;9.40;99.90;;;;;;4901041;29;20552;-79
2023/04/01 11:26:42;;;;;;;11.37;10.87;;;9.30;99.90;;;;;;4916294;29;20265;-79
2023/04/01 11:29:43;;;;;;;14.10;13.33;;;9.30;99.90;;;;;;4910874;29;20196;-79
2023/04/01 11:32:19;;;;;;;10.00;9.60;;;9.40;99.90;;;;;;4899441;29;20221;-79
2023/04/01 11:34:57;;;;;;;16.80;16.07;;;9.40;99.90;;;;;;4916176;29;20214;-80
2023/04/01 11:37:35;;;;;;;7.10;6.80;;;9.40;99.90;;;;;;4899539;29;20187;-79
2023/04/01 11:40:36;;;;;;;27.20;25.87;;;9.50;99.90;;;;;;4916568;29;20644;-79
2023/04/01 11:43:21;;;;;;;29.93;28.30;;;9.60;99.90;;;;;;4869741;29;20195;-80
2023/04/01 11:46:04;;;;;;;13.77;13.17;;;9.60;99.90;;;;;;4901183;29;20194;-81
2023/04/01 11:48:40;;;;;;;34.33;32.57;;;9.60;99.90;;;;;;4901127;29;20262;-81
2023/04/01 11:51:17;;;;;;;47.63;45.10;;;9.60;99.90;;;;;;4917795;29;20195;-81
2023/04/01 11:54:17;;;;;;;26.80;25.40;;;9.70;99.90;;;;;;4900584;29;20307;-80
2023/04/01 11:57:14;;;;;;;25.00;23.87;;;9.70;99.90;;;;;;4899568;29;20218;-79
2023/04/01 12:00:02;;;;;;;17.73;16.97;;;9.60;99.90;;;;;;4898826;29;20195;-81
2023/04/01 12:02:42;;;;;;;13.80;13.10;;;9.70;99.90;;;;;;4898909;29;20179;-82
2023/04/01 12:05:17;;;;;;;8.20;7.60;;;9.80;99.90;;;;;;4898260;29;20215;-75
2023/04/01 12:08:02;;;;;;;4.93;4.63;;;9.80;99.90;;;;;;4896383;29;20187;-75
2023/04/01 12:10:45;;;;;;;13.23;12.67;;;10.00;99.90;;;;;;4896227;29;20192;-75
2023/04/01 12:13:19;;;;;;;9.57;6.90;;;10.00;99.90;;;;;;4908142;29;20245;-77
2023/04/01 12:15:57;;;;;;;6.80;6.43;;;10.10;99.90;;;;;;4896324;29;20229;-75
2023/04/01 12:18:55;;;;;;;6.57;6.20;;;10.10;99.90;;;;;;4914822;29;20179;-74
2023/04/01 12:21:37;;;;;;;6.67;6.43;;;10.10;99.90;;;;;;4897713;29;20193;-74
2023/04/01 12:24:40;;;;;;;9.17;8.77;;;10.20;99.90;;;;;;4914016;29;20198;-75
2023/04/01 12:27:26;;;;;;;5.87;5.57;;;10.30;99.90;;;;;;4908666;29;20192;-74
2023/04/01 12:30:29;;;;;;;7.33;7.10;;;10.30;99.90;;;;;;4914430;29;20248;-74
2023/04/01 12:33:24;;;;;;;4.40;4.20;;;10.20;99.90;;;;;;4916274;29;20590;-75
2023/04/01 12:36:27;;;;;;;8.40;8.00;;;10.10;99.90;;;;;;4875113;29;20800;-75
2023/04/01 12:39:22;;;;;;;5.33;5.17;;;10.10;99.90;;;;;;4895662;29;20195;-74
2023/04/01 12:41:57;;;;;;;5.63;5.30;;;10.00;99.90;;;;;;4879342;29;20183;-74
2023/04/01 12:44:57;;;;;;;6.70;6.30;;;10.00;99.90;;;;;;4895675;29;20574;-74
2023/04/01 12:47:33;;;;;;;6.37;6.17;;;10.10;99.90;;;;;;4891410;29;20557;-74
2023/04/01 12:50:08;;;;;;;8.83;8.43;;;10.10;99.90;;;;;;4914171;29;20210;-74
2023/04/01 12:52:52;;;;;;;11.60;11.10;;;10.20;99.90;;;;;;4914662;29;20651;-77
2023/04/01 12:55:33;;;;;;;7.90;7.50;;;10.20;99.90;;;;;;4914490;29;20253;-77
2023/04/01 12:58:39;;;;;;;6.60;6.20;;;10.20;99.90;;;;;;4914860;29;20652;-77
2023/04/01 13:01:49;;;;;;;9.00;8.60;;;10.20;99.90;;;;;;4897301;29;20187;-78
2023/04/01 13:04:15;;;;;;;6.87;6.57;;;10.20;99.90;;;;;;4885491;29;20399;-77
2023/04/01 13:06:51;;;;;;;12.23;11.50;;;10.20;99.90;;;;;;4895601;29;20842;-77
2023/04/01 13:10:01;;;;;;;13.07;12.40;;;10.20;99.90;;;;;;4879993;29;20191;-76
2023/04/01 13:12:37;;;;;;;12.50;11.90;;;10.20;99.90;;;;;;4822838;29;20194;-77
2023/04/01 13:15:15;;;;;;;9.90;9.27;;;10.10;99.90;;;;;;4825239;29;20985;-77
2023/04/01 13:17:52;;;;;;;7.17;6.67;;;10.20;99.90;;;;;;4875189;29;20197;-77
2023/04/01 13:20:43;;;;;;;10.67;10.00;;;10.20;99.90;;;;;;4900130;29;20183;-77
2023/04/01 13:23:28;;;;;;;14.40;13.80;;;10.30;99.90;;;;;;4901051;29;20587;-78
2023/04/01 13:26:15;;;;;;;14.70;14.00;;;10.30;99.90;;;;;;4918173;29;20223;-77
2023/04/01 13:28:44;;;;;;;14.50;13.90;;;10.40;99.90;;;;;;4918214;29;20182;-77
2023/04/01 13:31:36;;;;;;;5.17;5.00;;;10.50;99.90;;;;;;4907228;29;20247;-77
2023/04/01 13:34:39;;;;;;;23.07;22.07;;;10.70;99.90;;;;;;4922352;29;20243;-76
2023/04/01 13:37:20;;;;;;;12.70;12.20;;;10.80;99.90;;;;;;4917955;29;20230;-77
2023/04/01 13:39:57;;;;;;;10.10;9.70;;;10.80;99.90;;;;;;4900375;29;20214;-77
2023/04/01 13:42:47;;;;;;;5.47;5.30;;;10.80;99.90;;;;;;4902163;29;20183;-78
2023/04/01 13:45:39;;;;;;;10.07;9.67;;;10.80;99.90;;;;;;4901625;29;20217;-78
2023/04/01 13:48:33;;;;;;;11.03;10.63;;;10.60;99.90;;;;;;4911820;29;20195;-78
2023/04/01 13:51:17;;;;;;;10.87;10.47;;;10.60;99.90;;;;;;4900575;29;20255;-77
2023/04/01 13:53:45;;;;;;;15.47;14.87;;;10.40;99.90;;;;;;4900429;29;20774;-77
2023/04/01 13:56:43;;;;;;;21.17;20.23;;;10.40;99.90;;;;;;4914913;29;20648;-78
2023/04/01 13:59:34;;;;;;;22.27;21.17;;;10.50;99.90;;;;;;4890511;29;20657;-78
2023/04/01 14:02:38;;;;;;;21.17;20.20;;;10.60;99.90;;;;;;4928380;29;20182;-77
2023/04/01 14:05:29;;;;;;;14.67;14.07;;;10.70;99.90;;;;;;4927095;29;20203;-77
2023/04/01 14:08:29;;;;;;;3.60;3.50;;;10.80;99.90;;;;;;4900299;29;20180;-76
2023/04/01 14:11:10;;;;;;;3.50;3.40;;;10.90;99.90;;;;;;4900159;29;20554;-76
2023/04/01 14:14:05;;;;;;;3.70;3.60;;;10.90;99.90;;;;;;4923790;29;20214;-76
2023/04/01 14:17:02;;;;;;;3.30;3.20;;;10.90;99.90;;;;;;4881379;29;20187;-76
2023/04/01 14:19:46;;;;;;;6.47;6.17;;;11.00;99.90;;;;;;4880902;29;20184;-76
2023/04/01 14:22:31;;;;;;;6.50;6.30;;;10.90;99.90;;;;;;4898986;29;20226;-76
2023/04/01 14:25:05;;;;;;;4.47;4.37;;;10.80;99.90;;;;;;4906632;29;20211;-76
2023/04/01 14:27:50;;;;;;;3.47;3.37;;;10.60;99.90;;;;;;4917016;29;20472;-75
2023/04/01 14:31:11;;;;;;;20.57;19.70;;;10.50;99.90;;;;;;4917093;29;20577;-75
2023/04/01 14:33:55;;;;;;;26.40;25.23;;;10.40;99.90;;;;;;4900540;29;20280;-75
2023/04/01 14:36:35;;;;;;;17.67;16.90;;;10.20;99.90;;;;;;4916601;29;20691;-76
2023/04/01 14:39:33;;;;;;;4.33;4.23;;;10.00;99.90;;;;;;4899463;29;20667;-77
2023/04/01 14:42:24;;;;;;;3.40;3.30;;;9.80;99.90;;;;;;4899432;29;20183;-76
2023/04/01 14:45:19;;;;;;;3.80;3.53;;;9.80;99.90;;;;;;4916097;29;20218;-75
2023/04/01 14:47:48;;;;;;;6.87;6.67;;;9.80;99.90;;;;;;4916180;29;20223;-76
2023/04/01 14:50:16;;;;;;;14.27;13.67;;;9.80;99.90;;;;;;4915999;29;20179;-76
2023/04/01 14:52:49;;;;;;;5.33;5.13;;;9.70;99.90;;;;;;4898510;29;20195;-77
2023/04/01 14:55:49;;;;;;;8.57;8.27;;;9.60;99.90;;;;;;4916303;29;20241;-76
2023/04/01 14:58:17;;;;;;;6.00;5.80;;;9.60;99.90;;;;;;4898508;29;20187;-76
2023/04/01 15:00:51;;;;;;;5.00;4.90;;;9.60;99.90;;;;;;4916188;29;20214;-76
2023/04/01 15:03:20;;;;;;;5.60;5.40;;;9.50;99.90;;;;;;4916934;29;20657;-76
2023/04/01 15:06:14;;;;;;;17.40;15.63;;;9.50;99.90;;;;;;4916208;29;20191;-75
2023/04/01 15:09:13;;;;;;;36.13;33.83;;;9.50;99.90;;;;;;4899023;29;20183;-73
2023/04/01 15:12:11;;;;;;;29.60;28.00;;;9.50;99.90;;;;;;4916033;29;20179;-74
2023/04/01 15:14:47;;;;;;;6.93;6.53;;;9.50;99.90;;;;;;4933439;23;20266;-72
2023/04/01 15:17:37;;;;;;;8.70;8.40;;;9.50;99.90;;;;;;4935208;29;20189;-72
2023/04/01 15:20:42;;;;;;;8.67;8.33;;;9.50;99.90;;;;;;4918063;29;20600;-73
2023/04/01 15:23:24;;;;;;;8.73;8.43;;;9.40;99.90;;;;;;4919322;29;20186;-72
2023/04/01 15:26:28;;;;;;;11.00;10.60;;;9.40;99.90;;;;;;4888104;29;20294;-72
2023/04/01 15:29:09;;;;;;;14.33;13.43;;;9.40;99.90;;;;;;4896561;29;20668;-72
2023/04/01 15:32:06;;;;;;;11.80;11.20;;;9.40;99.90;;;;;;4879349;29;20263;-72
2023/04/01 15:34:36;;;;;;;9.23;8.70;;;9.40;99.90;;;;;;4892033;29;20237;-72
2023/04/01 15:37:19;;;;;;;10.47;10.07;;;9.40;99.90;;;;;;4915356;29;20246;-72
2023/04/01 15:40:11;;;;;;;12.53;11.93;;;9.30;99.90;;;;;;4915056;29;20282;-75
2023/04/01 15:42:46;;;;;;;15.83;15.00;;;9.30;99.90;;;;;;4898962;29;20862;-75
2023/04/01 15:45:46;;;;;;;13.90;13.30;;;9.30;99.90;;;;;;4909247;29;20214;-75
2023/04/01 15:48:27;;;;;;;8.63;8.23;;;9.40;99.90;;;;;;4883736;29;20201;-76
2023/04/01 15:51:37;;;;;;;9.43;8.70;;;9.40;99.90;;;;;;4879907;29;20203;-75
2023/04/01 15:54:31;;;;;;;9.10;8.70;;;9.60;99.90;;;;;;4865951;29;20231;-76
2023/04/01 15:57:16;;;;;;;11.27;10.83;;;9.60;99.90;;;;;;4896573;29;20397;-76
2023/04/01 16:00:10;;;;;;;15.67;15.00;;;9.70;99.90;;;;;;4879428;29;20199;-75
2023/04/01 16:02:50;;;;;;;8.47;8.17;;;9.80;99.90;;;;;;4879795;29;20195;-77
2023/04/01 16:05:54;;;;;;;8.17;7.87;;;10.00;99.90;;;;;;4885402;29;20289;-77
2023/04/01 16:08:41;;;;;;;9.23;8.93;;;10.00;99.90;;;;;;4914612;29;20179;-76
2023/04/01 16:11:16;;;;;;;9.27;8.97;;;10.10;99.90;;;;;;4898527;29;20179;-76
2023/04/01 16:14:05;;;;;;;8.60;8.30;;;10.10;99.90;;;;;;4915120;29;20582;-76
2023/04/01 16:16:52;;;;;;;15.13;14.40;;;10.10;99.90;;;;;;4882626;29;20187;-76
2023/04/01 16:19:49;;;;;;;16.77;16.07;;;10.20;99.90;;;;;;4896053;29;20642;-76
2023/04/01 16:22:36;;;;;;;21.93;20.93;;;10.20;99.90;;;;;;4897518;29;20210;-76
2023/04/01 16:25:14;;;;;;;14.60;14.00;;;10.20;99.90;;;;;;4896540;29;20214;-74
2023/04/01 16:28:03;;;;;;;11.87;11.37;;;10.30;99.90;;;;;;4879549;29;20187;-76
2023/04/01 16:30:35;;;;;;;11.60;11.20;;;10.30;99.90;;;;;;4879518;29;20658;-76
2023/04/01 16:33:27;;;;;;;12.93;12.43;;;10.30;99.90;;;;;;4911162;29;20183;-75
2023/04/01 16:35:59;;;;;;;9.83;9.43;;;10.40;99.90;;;;;;4915022;29;20211;-75
2023/04/01 16:38:43;;;;;;;12.70;12.20;;;10.40;99.90;;;;;;4897761;29;20182;-75
2023/04/01 16:41:25;;;;;;;6.60;6.40;;;10.30;99.90;;;;;;4912823;29;20270;-75
2023/04/01 16:43:58;;;;;;;3.77;3.67;;;10.40;99.90;;;;;;4924629;29;20186;-75
2023/04/01 16:46:36;;;;;;;3.93;3.77;;;10.40;99.90;;;;;;4918580;29;20195;-76
2023/04/01 16:49:11;;;;;;;3.60;3.50;;;10.40;99.90;;;;;;4918282;29;20191;-77
2023/04/01 16:51:57;;;;;;;3.47;3.37;;;10.40;99.90;;;;;;4913188;29;20215;-75
2023/04/01 16:54:26;;;;;;;3.50;3.30;;;10.40;99.90;;;;;;4899718;29;20219;-76
2023/04/01 16:57:15;;;;;;;4.37;4.17;;;10.40;99.90;;;;;;4901673;29;20184;-76